Terminal Aerodrome Forecast
Issued by NWS Mobile, AL

Home | Current Version | Previous Version | Text Only | Print | Product List | Glossary On
Versions: 1 2 3 4 5 6 7 8 9 10 11 12 13 14 15 16 17 18 19 20 21 22 23 24 25 26 27
000
FTUS44 KMOB 302300
TAFPNS
TAF
KPNS 302339Z 3100/3124 19008KT P6SM SCT025 SCT080 OVC200
     FM310200 14005KT P6SM VCSH FEW040 SCT100 BKN200
     FM311500 16009KT P6SM SCT040 SCT120 BKN200=

USA.gov is the U.S. government's official web portal to all federal, state and local government web resources and services.